Time;durP1;ratioP1;P1;durP2;ratioP2;P2;SDS_P1;SDS_P2;PMS_P1;PMS_P2;Temp;Humidity;BMP_temperature;BMP_pressure;BME280_temperature;BME280_humidity;BME280_pressure;Samples;Min_cycle;Max_cycle;Signal;HPM_P1;HPM_P2
2024/01/21 00:01:17;;;;;;;11.15;6.28;;;0.80;99.90;;;;;;5087704;28;20625;-64
2024/01/21 00:03:43;;;;;;;10.65;6.15;;;0.70;99.90;;;;;;5053371;28;20551;-64
2024/01/21 00:06:09;;;;;;;10.10;5.90;;;0.70;99.90;;;;;;5053484;28;20082;-64
2024/01/21 00:08:35;;;;;;;11.10;6.38;;;0.70;99.90;;;;;;5071510;28;20122;-64
2024/01/21 00:11:00;;;;;;;12.38;7.97;;;0.60;99.90;;;;;;5054210;28;20186;-64
2024/01/21 00:13:26;;;;;;;11.82;7.65;;;0.60;1.00;;;;;;5070579;28;20035;-64
2024/01/21 00:15:52;;;;;;;11.77;7.45;;;0.60;1.00;;;;;;5086992;28;20043;-63
2024/01/21 00:18:18;;;;;;;10.13;7.25;;;0.50;1.00;;;;;;5087141;28;20189;-64
2024/01/21 00:20:44;;;;;;;11.25;7.05;;;0.50;1.00;;;;;;5070984;28;20346;-64
2024/01/21 00:23:09;;;;;;;10.30;6.72;;;0.50;1.00;;;;;;5070776;28;20039;-65
2024/01/21 00:25:35;;;;;;;11.50;7.40;;;0.50;1.00;;;;;;5070722;28;20051;-64
2024/01/21 00:28:01;;;;;;;10.93;7.43;;;0.60;1.00;;;;;;5054474;28;20127;-64
2024/01/21 00:30:27;;;;;;;12.18;6.80;;;0.60;1.00;;;;;;5074607;28;20088;-63
2024/01/21 00:32:53;;;;;;;10.73;7.32;;;0.50;1.00;;;;;;5091065;28;20046;-63
2024/01/21 00:35:18;;;;;;;11.18;7.47;;;0.60;1.00;;;;;;5058097;28;20039;-64
2024/01/21 00:37:44;;;;;;;12.18;7.85;;;0.60;1.00;;;;;;5074520;28;20461;-63
2024/01/21 00:40:11;;;;;;;10.90;6.85;;;0.60;99.90;;;;;;5073647;28;20047;-64
2024/01/21 00:42:37;;;;;;;13.30;8.25;;;0.50;99.90;;;;;;5073429;28;20733;-63
2024/01/21 00:45:03;;;;;;;12.13;8.60;;;0.50;1.00;;;;;;5056275;28;20118;-64
2024/01/21 00:47:29;;;;;;;11.25;8.30;;;0.50;1.00;;;;;;5090384;28;20035;-64
2024/01/21 00:49:55;;;;;;;13.80;9.15;;;0.60;99.90;;;;;;5073420;28;20379;-63
2024/01/21 00:52:20;;;;;;;16.35;8.88;;;0.60;1.00;;;;;;5091281;28;20028;-64
2024/01/21 00:54:46;;;;;;;11.20;8.02;;;0.60;99.90;;;;;;5062884;28;20153;-64
2024/01/21 00:57:12;;;;;;;10.30;6.50;;;0.60;99.90;;;;;;5073206;28;20046;-63
2024/01/21 00:59:38;;;;;;;9.77;7.63;;;0.60;99.90;;;;;;5090510;28;20035;-64
2024/01/21 01:02:04;;;;;;;10.25;7.35;;;0.60;99.90;;;;;;5073229;28;20035;-64
2024/01/21 01:04:29;;;;;;;11.82;6.38;;;0.70;99.90;;;;;;5056833;28;20726;-63
2024/01/21 01:06:55;;;;;;;10.18;6.88;;;0.70;99.90;;;;;;5090234;27;20298;-65
2024/01/21 01:09:21;;;;;;;9.35;6.72;;;0.80;99.90;;;;;;5073047;28;20035;-64
2024/01/21 01:11:50;;;;;;;12.13;7.15;;;0.80;99.90;;;;;;5072035;28;20039;-64
2024/01/21 01:14:16;;;;;;;10.18;5.97;;;0.90;99.90;;;;;;5063832;28;20093;-64
2024/01/21 01:16:42;;;;;;;8.95;6.80;;;0.90;99.90;;;;;;5094446;27;20664;-65
2024/01/21 01:19:07;;;;;;;9.38;6.55;;;0.90;99.90;;;;;;5073701;28;20085;-64
2024/01/21 01:21:33;;;;;;;10.57;6.35;;;0.90;99.90;;;;;;5073815;28;20076;-65
2024/01/21 01:23:59;;;;;;;10.60;6.70;;;0.90;99.90;;;;;;5072755;28;20091;-65
2024/01/21 01:26:25;;;;;;;10.98;7.10;;;1.00;99.90;;;;;;5056663;28;20054;-64
2024/01/21 01:28:51;;;;;;;11.20;7.00;;;1.00;99.90;;;;;;5072581;28;20248;-64
2024/01/21 01:31:20;;;;;;;10.95;6.90;;;1.00;99.90;;;;;;5073203;28;20035;-64
2024/01/21 01:33:47;;;;;;;10.70;6.55;;;1.00;99.90;;;;;;5094954;27;20476;-64
2024/01/21 01:36:13;;;;;;;9.38;6.60;;;1.00;99.90;;;;;;5078073;28;20467;-64
2024/01/21 01:38:39;;;;;;;8.65;6.63;;;1.00;99.90;;;;;;5071186;28;20063;-64
2024/01/21 01:41:05;;;;;;;10.15;6.38;;;1.00;99.90;;;;;;5072834;28;20054;-64
2024/01/21 01:43:30;;;;;;;9.77;6.25;;;1.00;99.90;;;;;;5072786;28;20047;-64
2024/01/21 01:46:00;;;;;;;11.55;7.22;;;1.00;99.90;;;;;;5077916;28;20051;-63
2024/01/21 01:48:28;;;;;;;11.25;6.30;;;1.00;99.90;;;;;;5073383;28;20039;-64
2024/01/21 01:50:56;;;;;;;9.90;6.38;;;1.00;99.90;;;;;;5072589;28;20233;-64
2024/01/21 01:53:22;;;;;;;9.23;5.60;;;1.00;99.90;;;;;;5089257;28;20557;-64
2024/01/21 01:55:48;;;;;;;9.45;6.35;;;1.00;99.90;;;;;;5072298;28;20081;-64
2024/01/21 01:58:15;;;;;;;10.20;5.80;;;1.00;99.90;;;;;;5089005;28;20047;-64
2024/01/21 02:00:42;;;;;;;10.73;7.03;;;1.00;99.90;;;;;;5089390;28;20409;-64
2024/01/21 02:03:08;;;;;;;9.95;5.80;;;1.00;99.90;;;;;;5089317;28;20377;-64
2024/01/21 02:05:34;;;;;;;11.35;6.70;;;1.00;99.90;;;;;;5071841;28;20066;-64
2024/01/21 02:08:00;;;;;;;10.65;6.13;;;1.10;99.90;;;;;;5089028;28;20063;-64
2024/01/21 02:10:29;;;;;;;11.30;5.88;;;0.90;99.90;;;;;;5089450;28;20233;-63
2024/01/21 02:12:55;;;;;;;10.63;6.45;;;0.90;99.90;;;;;;5089140;28;20036;-64
2024/01/21 02:15:21;;;;;;;11.68;6.45;;;0.80;99.90;;;;;;5055566;28;20043;-64
2024/01/21 02:17:47;;;;;;;9.13;5.55;;;0.80;99.90;;;;;;5089239;28;20071;-64
2024/01/21 02:20:13;;;;;;;11.00;6.13;;;0.70;99.90;;;;;;5072778;28;20043;-65
2024/01/21 02:22:40;;;;;;;9.93;6.13;;;0.70;99.90;;;;;;5092292;27;20500;-64
2024/01/21 02:25:07;;;;;;;7.90;4.85;;;0.70;99.90;;;;;;5105422;27;20797;-65
2024/01/21 02:27:34;;;;;;;9.00;5.82;;;0.80;99.90;;;;;;5088814;28;20136;-64
2024/01/21 02:30:00;;;;;;;10.00;5.97;;;0.80;99.90;;;;;;5089038;28;20127;-64
2024/01/21 02:32:26;;;;;;;7.97;5.03;;;0.80;99.90;;;;;;5072465;28;20043;-64
2024/01/21 02:34:52;;;;;;;8.85;5.38;;;0.80;99.90;;;;;;5054549;28;20045;-64
2024/01/21 02:37:18;;;;;;;8.10;4.88;;;0.90;99.90;;;;;;5088479;28;20043;-64
2024/01/21 02:39:45;;;;;;;7.45;5.25;;;0.80;99.90;;;;;;5054061;28;20421;-63
2024/01/21 02:42:11;;;;;;;9.60;4.85;;;0.90;99.90;;;;;;5071371;28;20313;-65
2024/01/21 02:44:37;;;;;;;8.25;4.25;;;0.90;99.90;;;;;;5071641;28;20028;-63
2024/01/21 02:47:03;;;;;;;6.45;3.92;;;0.80;99.90;;;;;;5072057;28;20206;-63
2024/01/21 02:49:29;;;;;;;7.40;4.22;;;0.80;99.90;;;;;;5071167;28;20489;-63
2024/01/21 02:51:56;;;;;;;7.15;4.30;;;0.90;99.90;;;;;;5071209;28;20035;-63
2024/01/21 02:54:22;;;;;;;6.13;4.05;;;0.90;99.90;;;;;;5071090;28;20039;-63
2024/01/21 02:56:48;;;;;;;6.13;4.10;;;0.80;99.90;;;;;;5088277;28;20035;-63
2024/01/21 02:59:14;;;;;;;5.97;3.42;;;0.80;99.90;;;;;;5071240;28;20066;-63
2024/01/21 03:01:40;;;;;;;6.47;4.05;;;0.80;99.90;;;;;;5071773;28;21099;-63
2024/01/21 03:04:09;;;;;;;7.03;3.45;;;0.80;99.90;;;;;;5067280;28;20109;-64
2024/01/21 03:06:35;;;;;;;5.53;3.45;;;0.80;99.90;;;;;;5087894;28;20050;-63
2024/01/21 03:09:00;;;;;;;5.25;3.53;;;0.80;99.90;;;;;;5071600;28;20558;-63
2024/01/21 03:11:26;;;;;;;6.35;3.40;;;0.80;99.90;;;;;;5054465;28;20050;-64
2024/01/21 03:13:53;;;;;;;6.70;3.63;;;0.80;99.90;;;;;;5088544;28;20554;-63
2024/01/21 03:16:18;;;;;;;4.68;2.88;;;0.90;99.90;;;;;;5088245;28;20505;-63
2024/01/21 03:18:44;;;;;;;5.75;3.67;;;0.90;99.90;;;;;;5072369;28;20043;-63
2024/01/21 03:21:10;;;;;;;4.32;2.63;;;0.90;99.90;;;;;;5071595;28;20391;-64
2024/01/21 03:23:36;;;;;;;6.57;2.88;;;0.90;99.90;;;;;;5089208;28;20053;-63
2024/01/21 03:26:01;;;;;;;5.25;3.10;;;1.00;99.90;;;;;;5071347;28;20373;-63
2024/01/21 03:28:27;;;;;;;4.38;2.97;;;1.00;99.90;;;;;;5089820;28;20396;-63
2024/01/21 03:30:53;;;;;;;5.00;2.58;;;1.10;99.90;;;;;;5088602;28;20047;-63
2024/01/21 03:33:19;;;;;;;4.82;2.50;;;1.20;99.90;;;;;;5072160;28;20441;-63
2024/01/21 03:35:45;;;;;;;5.13;2.72;;;1.20;99.90;;;;;;5072173;28;20096;-63
2024/01/21 03:38:10;;;;;;;5.40;3.17;;;1.20;99.90;;;;;;5088640;28;20409;-63
2024/01/21 03:40:36;;;;;;;3.33;2.17;;;1.30;99.90;;;;;;5072180;28;20136;-64
2024/01/21 03:43:02;;;;;;;6.75;2.60;;;1.30;99.90;;;;;;5088278;28;20149;-63
2024/01/21 03:45:27;;;;;;;2.92;1.77;;;1.20;99.90;;;;;;5089176;28;20234;-64
2024/01/21 03:47:53;;;;;;;4.25;2.15;;;1.20;99.90;;;;;;5071676;28;20374;-63
2024/01/21 03:50:20;;;;;;;4.10;2.40;;;1.20;99.90;;;;;;5071943;28;20421;-63
2024/01/21 03:52:47;;;;;;;3.63;1.77;;;1.20;99.90;;;;;;5070418;28;20151;-65
2024/01/21 03:55:17;;;;;;;4.68;1.85;;;1.30;99.90;;;;;;5087651;28;20550;-64
2024/01/21 03:57:43;;;;;;;2.80;1.75;;;1.30;99.90;;;;;;5053818;28;20036;-63
2024/01/21 04:00:10;;;;;;;3.42;1.55;;;1.30;99.90;;;;;;5091758;28;20043;-63
2024/01/21 04:02:36;;;;;;;2.55;1.38;;;1.30;99.90;;;;;;5088587;28;20048;-63
2024/01/21 04:05:03;;;;;;;4.07;1.77;;;1.30;99.90;;;;;;5091245;28;20468;-63
2024/01/21 04:07:29;;;;;;;3.13;1.85;;;1.30;99.90;;;;;;5074760;28;20036;-64
2024/01/21 04:09:55;;;;;;;4.05;2.20;;;1.20;99.90;;;;;;5074451;28;20468;-64
2024/01/21 04:12:21;;;;;;;2.90;1.63;;;1.10;99.90;;;;;;5091336;28;20054;-63
2024/01/21 04:14:47;;;;;;;3.30;1.65;;;1.10;99.90;;;;;;5075500;28;20042;-63
2024/01/21 04:17:14;;;;;;;3.05;1.65;;;1.10;99.90;;;;;;5062063;28;20125;-63
2024/01/21 04:19:39;;;;;;;2.65;1.33;;;1.10;99.90;;;;;;5074631;28;20411;-64
2024/01/21 04:22:05;;;;;;;4.85;1.80;;;1.10;99.90;;;;;;5057756;28;20044;-64
2024/01/21 04:24:31;;;;;;;3.38;1.80;;;1.10;99.90;;;;;;5091612;28;20031;-63
2024/01/21 04:26:57;;;;;;;3.78;1.65;;;1.00;99.90;;;;;;5074625;28;20046;-63
2024/01/21 04:29:22;;;;;;;3.33;1.70;;;1.00;99.90;;;;;;5075009;28;20177;-63
2024/01/21 04:31:48;;;;;;;2.92;1.50;;;1.00;99.90;;;;;;5058192;28;20481;-63
2024/01/21 04:34:14;;;;;;;2.65;1.52;;;1.00;99.90;;;;;;5090662;28;20589;-63
2024/01/21 04:36:40;;;;;;;2.13;1.30;;;1.00;99.90;;;;;;5072942;28;20063;-63
2024/01/21 04:39:07;;;;;;;2.83;1.70;;;1.10;99.90;;;;;;5073752;28;20150;-63
2024/01/21 04:41:33;;;;;;;2.75;1.45;;;1.00;99.90;;;;;;5095124;27;20175;-63
2024/01/21 04:43:59;;;;;;;2.55;1.40;;;1.00;99.90;;;;;;5091348;28;20043;-63
2024/01/21 04:46:25;;;;;;;3.38;1.45;;;1.00;99.90;;;;;;5073714;28;20078;-63
2024/01/21 04:48:52;;;;;;;2.22;1.48;;;1.00;99.90;;;;;;5056772;28;20108;-63
2024/01/21 04:51:18;;;;;;;2.50;1.48;;;0.90;99.90;;;;;;5073958;28;20712;-64
2024/01/21 04:53:44;;;;;;;2.67;1.20;;;1.00;99.90;;;;;;5075995;28;20130;-63
2024/01/21 04:56:17;;;;;;;2.05;1.15;;;1.00;99.90;;;;;;5074356;28;20047;-63
2024/01/21 04:58:43;;;;;;;2.50;1.10;;;0.90;99.90;;;;;;5061393;28;20168;-63
2024/01/21 05:01:10;;;;;;;3.17;1.00;;;0.90;99.90;;;;;;5074041;28;20054;-64
2024/01/21 05:03:35;;;;;;;2.33;1.20;;;1.00;99.90;;;;;;5056906;28;20682;-64
2024/01/21 05:06:01;;;;;;;2.28;1.10;;;1.00;99.90;;;;;;5090215;28;20039;-64
2024/01/21 05:08:27;;;;;;;2.63;1.48;;;0.90;99.90;;;;;;5056449;28;20043;-63
2024/01/21 05:10:53;;;;;;;1.75;0.90;;;0.90;99.90;;;;;;5090324;28;20039;-64
2024/01/21 05:13:19;;;;;;;2.90;1.38;;;0.90;99.90;;;;;;5056303;28;20039;-63
2024/01/21 05:15:45;;;;;;;4.30;1.15;;;1.00;99.90;;;;;;5072643;28;20769;-63
2024/01/21 05:18:11;;;;;;;3.08;1.10;;;1.00;99.90;;;;;;5090417;28;20047;-63
2024/01/21 05:20:37;;;;;;;3.88;0.90;;;1.00;99.90;;;;;;5090222;28;20036;-63
2024/01/21 05:23:03;;;;;;;1.90;0.80;;;1.10;99.90;;;;;;5073674;28;20460;-63
2024/01/21 05:25:29;;;;;;;2.70;0.98;;;1.10;99.90;;;;;;5093733;27;20031;-63
2024/01/21 05:27:56;;;;;;;1.85;0.80;;;1.20;99.90;;;;;;5073634;28;20306;-63
2024/01/21 05:30:22;;;;;;;2.50;0.73;;;1.20;99.90;;;;;;5073337;28;20038;-62
2024/01/21 05:32:50;;;;;;;1.70;0.70;;;1.30;99.90;;;;;;5073482;28;20425;-64
2024/01/21 05:35:17;;;;;;;1.50;0.80;;;1.40;99.90;;;;;;5078368;28;20040;-63
2024/01/21 05:37:43;;;;;;;1.63;0.77;;;1.50;99.90;;;;;;5073260;28;20031;-63
2024/01/21 05:40:09;;;;;;;3.25;0.68;;;1.60;99.90;;;;;;5072809;28;20055;-63
2024/01/21 05:42:34;;;;;;;2.25;0.63;;;1.50;99.90;;;;;;5073551;28;20494;-64
2024/01/21 05:45:00;;;;;;;2.20;0.70;;;1.60;99.90;;;;;;5056432;28;20046;-63
2024/01/21 05:47:26;;;;;;;2.42;0.55;;;1.60;99.90;;;;;;5073168;28;20262;-63
2024/01/21 05:49:52;;;;;;;1.42;0.60;;;1.70;74.10;;;;;;5056579;28;20032;-64
2024/01/21 05:52:17;;;;;;;2.33;0.70;;;1.70;99.90;;;;;;5056697;28;20100;-63
2024/01/21 05:54:43;;;;;;;1.48;0.60;;;1.70;1.00;;;;;;5090536;28;20150;-63
2024/01/21 05:57:09;;;;;;;1.63;0.68;;;1.90;23.10;;;;;;5056767;28;20043;-62
2024/01/21 05:59:35;;;;;;;1.63;0.50;;;1.90;25.60;;;;;;5090431;28;20402;-62
2024/01/21 06:02:01;;;;;;;1.95;0.68;;;2.00;6.10;;;;;;5055672;28;20521;-63
2024/01/21 06:04:27;;;;;;;1.52;0.50;;;2.10;15.70;;;;;;5072585;28;20059;-63
2024/01/21 06:06:53;;;;;;;1.63;0.47;;;2.10;12.80;;;;;;5055598;28;20124;-64
2024/01/21 06:09:19;;;;;;;1.55;0.70;;;2.20;1.10;;;;;;5071704;28;20441;-63
2024/01/21 06:11:45;;;;;;;2.65;0.82;;;2.20;12.30;;;;;;5056146;28;20035;-65
2024/01/21 06:14:13;;;;;;;2.15;0.65;;;2.20;14.60;;;;;;5088440;28;20066;-63
2024/01/21 06:16:39;;;;;;;1.35;0.65;;;2.20;5.80;;;;;;5039447;28;20050;-63
2024/01/21 06:19:05;;;;;;;3.30;0.73;;;2.20;1.20;;;;;;5072761;28;20052;-63
2024/01/21 06:21:31;;;;;;;2.63;1.13;;;2.20;8.20;;;;;;5072974;28;20039;-62
2024/01/21 06:23:57;;;;;;;1.98;0.60;;;2.20;10.20;;;;;;5123368;27;20062;-62
2024/01/21 06:26:23;;;;;;;2.47;0.70;;;2.30;1.00;;;;;;5072504;28;20405;-65
2024/01/21 06:28:52;;;;;;;2.33;0.90;;;2.30;1.20;;;;;;5089587;28;20035;-64
2024/01/21 06:31:18;;;;;;;1.58;1.00;;;2.30;2.70;;;;;;5071861;28;20039;-63
2024/01/21 06:33:44;;;;;;;2.35;0.95;;;2.30;11.00;;;;;;5088574;28;20114;-63
2024/01/21 06:36:10;;;;;;;2.00;0.80;;;2.40;8.00;;;;;;5088627;28;20519;-64
2024/01/21 06:38:38;;;;;;;1.75;0.85;;;2.50;1.00;;;;;;5055824;28;20046;-65
2024/01/21 06:41:04;;;;;;;1.90;1.25;;;2.50;2.80;;;;;;5090128;28;20142;-64
2024/01/21 06:43:30;;;;;;;2.47;1.10;;;2.50;1.00;;;;;;5071082;28;20051;-62
2024/01/21 06:45:56;;;;;;;2.97;1.27;;;2.60;1.00;;;;;;5055591;28;20508;-63
2024/01/21 06:48:22;;;;;;;2.88;1.15;;;2.50;4.30;;;;;;5121739;27;20659;-63
2024/01/21 06:50:50;;;;;;;2.42;1.40;;;2.50;1.20;;;;;;5089221;28;20035;-64
2024/01/21 06:53:16;;;;;;;4.50;1.42;;;2.50;1.00;;;;;;5071724;28;20641;-63
2024/01/21 06:55:45;;;;;;;2.38;1.63;;;2.60;2.10;;;;;;5071866;28;20031;-64
2024/01/21 06:58:11;;;;;;;2.85;1.48;;;2.50;1.00;;;;;;5054915;28;20256;-63
2024/01/21 07:00:37;;;;;;;3.30;1.63;;;2.50;2.00;;;;;;5071457;28;20589;-63
2024/01/21 07:03:04;;;;;;;2.78;1.30;;;2.50;1.00;;;;;;5060402;28;20269;-64
2024/01/21 07:05:29;;;;;;;2.85;1.67;;;2.50;1.00;;;;;;5062455;28;20039;-63
2024/01/21 07:07:56;;;;;;;3.20;1.10;;;2.50;1.90;;;;;;5055356;28;20044;-63
2024/01/21 07:10:23;;;;;;;2.63;1.17;;;2.50;1.00;;;;;;5071437;28;20027;-63
2024/01/21 07:12:49;;;;;;;2.70;1.85;;;2.40;1.00;;;;;;5071677;28;20118;-64
2024/01/21 07:15:15;;;;;;;5.82;2.47;;;2.40;1.80;;;;;;5071615;28;20058;-63
2024/01/21 07:17:41;;;;;;;5.75;2.38;;;2.40;6.50;;;;;;5088459;28;20084;-64
2024/01/21 07:20:14;;;;;;;4.15;2.40;;;2.30;13.80;;;;;;5076212;28;20101;-64
2024/01/21 07:22:40;;;;;;;3.55;2.25;;;2.30;1.00;;;;;;5055253;28;20116;-63
2024/01/21 07:25:07;;;;;;;4.38;2.50;;;2.30;9.10;;;;;;5054572;28;20597;-63
2024/01/21 07:27:34;;;;;;;4.35;2.60;;;2.30;12.30;;;;;;5071926;28;20028;-63
2024/01/21 07:30:00;;;;;;;4.40;2.13;;;2.30;10.20;;;;;;5087955;28;20359;-63
2024/01/21 07:32:26;;;;;;;5.22;2.50;;;2.30;16.80;;;;;;5054297;28;20116;-63
2024/01/21 07:34:51;;;;;;;4.95;2.50;;;2.30;13.20;;;;;;5070073;28;20031;-63
2024/01/21 07:37:17;;;;;;;6.00;2.50;;;2.30;17.20;;;;;;5073402;28;20046;-63
2024/01/21 07:39:43;;;;;;;4.63;3.35;;;2.20;20.70;;;;;;5059106;28;20600;-63
2024/01/21 07:42:09;;;;;;;6.10;2.80;;;2.30;24.60;;;;;;5074561;28;20132;-64
2024/01/21 07:44:35;;;;;;;6.57;3.03;;;2.20;22.60;;;;;;5107473;27;20039;-63
2024/01/21 07:47:01;;;;;;;6.03;2.72;;;2.30;22.90;;;;;;5057590;28;20040;-63
2024/01/21 07:49:27;;;;;;;6.25;3.45;;;2.20;24.50;;;;;;5075060;28;20653;-63
2024/01/21 07:51:54;;;;;;;8.85;3.58;;;2.30;21.30;;;;;;5057891;28;20043;-63
2024/01/21 07:54:19;;;;;;;6.90;3.20;;;2.20;20.00;;;;;;5074131;28;20040;-63
2024/01/21 07:56:45;;;;;;;5.38;3.53;;;2.30;20.50;;;;;;5091546;28;20112;-64
2024/01/21 07:59:11;;;;;;;5.40;3.05;;;2.30;26.70;;;;;;5058930;28;20043;-63
2024/01/21 08:01:37;;;;;;;4.53;3.13;;;2.30;22.90;;;;;;5074897;28;20996;-63
2024/01/21 08:04:03;;;;;;;5.43;3.50;;;2.30;19.40;;;;;;5056836;28;20232;-64
2024/01/21 08:06:29;;;;;;;5.20;3.30;;;2.30;26.30;;;;;;5078471;28;20035;-63
2024/01/21 08:08:55;;;;;;;5.88;3.42;;;2.30;24.80;;;;;;5063317;28;20458;-63
2024/01/21 08:11:21;;;;;;;5.22;3.63;;;2.30;24.80;;;;;;5074148;28;20035;-63
2024/01/21 08:13:47;;;;;;;5.78;3.90;;;2.30;25.70;;;;;;5074532;28;20826;-63
2024/01/21 08:16:13;;;;;;;6.78;3.95;;;2.40;26.40;;;;;;5061131;28;20046;-63
2024/01/21 08:18:39;;;;;;;5.78;4.03;;;2.40;25.60;;;;;;5073890;28;20067;-64
2024/01/21 08:21:05;;;;;;;9.02;4.45;;;2.30;28.70;;;;;;5058034;28;20142;-64
2024/01/21 08:23:31;;;;;;;4.78;3.30;;;2.30;31.10;;;;;;5057987;28;20130;-64
2024/01/21 08:25:57;;;;;;;6.32;4.28;;;2.30;34.20;;;;;;5057207;28;20547;-64
2024/01/21 08:28:22;;;;;;;5.18;3.40;;;2.30;34.00;;;;;;5058062;28;20347;-63
2024/01/21 08:30:49;;;;;;;7.30;3.70;;;2.30;34.60;;;;;;5090889;28;20036;-64
2024/01/21 08:33:15;;;;;;;6.90;4.05;;;2.30;34.70;;;;;;5057405;28;20433;-65
2024/01/21 08:35:41;;;;;;;4.90;3.47;;;2.30;33.00;;;;;;5058264;28;20039;-64
2024/01/21 08:38:06;;;;;;;6.70;4.60;;;2.40;38.00;;;;;;5091697;28;20067;-63
2024/01/21 08:40:32;;;;;;;7.93;4.75;;;2.40;36.80;;;;;;5074235;28;20517;-64
2024/01/21 08:42:58;;;;;;;6.85;4.35;;;2.40;43.70;;;;;;5073489;28;20047;-64
2024/01/21 08:45:24;;;;;;;5.93;4.30;;;2.40;42.40;;;;;;5089977;28;20313;-64
2024/01/21 08:47:50;;;;;;;5.57;3.78;;;2.40;42.10;;;;;;5090622;28;20178;-63
2024/01/21 08:50:16;;;;;;;6.60;4.00;;;2.30;43.50;;;;;;5057567;28;20546;-63
2024/01/21 08:52:41;;;;;;;6.03;5.00;;;2.30;39.00;;;;;;5063169;28;20043;-63
2024/01/21 08:55:08;;;;;;;6.03;4.47;;;2.40;45.40;;;;;;5058327;28;20116;-64
2024/01/21 08:57:33;;;;;;;7.85;4.50;;;2.30;33.90;;;;;;5058104;28;20047;-62
2024/01/21 08:59:59;;;;;;;6.53;3.80;;;2.30;39.00;;;;;;5065910;28;20031;-62
2024/01/21 09:02:28;;;;;;;6.32;3.75;;;2.30;33.30;;;;;;5108816;28;20040;-63
2024/01/21 09:04:54;;;;;;;7.45;4.55;;;2.30;34.10;;;;;;5090408;28;20043;-63
2024/01/21 09:07:19;;;;;;;7.97;4.18;;;2.40;49.80;;;;;;5107581;28;20113;-65
2024/01/21 09:09:45;;;;;;;6.40;4.43;;;2.40;45.40;;;;;;5108006;28;20040;-64
2024/01/21 09:12:14;;;;;;;6.72;4.07;;;2.50;46.80;;;;;;5089242;28;20036;-64
2024/01/21 09:14:41;;;;;;;6.97;4.28;;;2.50;54.10;;;;;;5107690;28;20036;-63
2024/01/21 09:17:06;;;;;;;6.25;4.30;;;2.60;49.20;;;;;;5105919;28;20044;-63
2024/01/21 09:19:32;;;;;;;8.23;4.72;;;2.60;50.80;;;;;;5089187;28;20043;-62
2024/01/21 09:21:58;;;;;;;7.03;4.40;;;2.50;55.60;;;;;;5089640;28;20122;-62
2024/01/21 09:24:24;;;;;;;7.00;4.60;;;2.60;59.10;;;;;;5105338;28;20048;-63
2024/01/21 09:26:50;;;;;;;8.25;4.85;;;2.60;62.10;;;;;;5078996;28;20401;-63
2024/01/21 09:29:16;;;;;;;7.03;4.40;;;2.60;67.50;;;;;;5071118;28;20088;-62
2024/01/21 09:31:42;;;;;;;7.35;4.95;;;2.60;71.50;;;;;;5105961;28;20384;-64
2024/01/21 09:34:08;;;;;;;7.38;4.70;;;2.70;73.50;;;;;;5089674;28;20124;-63
2024/01/21 09:36:34;;;;;;;7.43;4.65;;;2.70;62.30;;;;;;5071382;28;20036;-63
2024/01/21 09:39:02;;;;;;;5.90;4.30;;;2.80;72.80;;;;;;5106011;28;20115;-66
2024/01/21 09:41:37;;;;;;;7.70;5.07;;;2.90;74.20;;;;;;5106396;28;20516;-63
2024/01/21 09:44:04;;;;;;;6.90;4.63;;;2.80;78.50;;;;;;5089158;28;20467;-63
2024/01/21 09:46:29;;;;;;;7.15;4.40;;;2.80;73.10;;;;;;5076549;28;20936;-63
2024/01/21 09:48:59;;;;;;;6.20;4.45;;;2.80;83.10;;;;;;5088643;28;20048;-65
2024/01/21 09:51:25;;;;;;;7.95;4.20;;;2.90;82.50;;;;;;5109472;27;20471;-63
2024/01/21 09:53:51;;;;;;;8.00;5.25;;;2.90;75.70;;;;;;5069366;28;20524;-64
2024/01/21 09:56:17;;;;;;;7.15;4.50;;;2.90;85.80;;;;;;5092490;28;20075;-66
2024/01/21 09:58:50;;;;;;;6.63;4.90;;;2.90;86.50;;;;;;5074643;28;20516;-65
2024/01/21 10:01:16;;;;;;;8.63;4.13;;;2.90;91.10;;;;;;5087351;28;20043;-64
2024/01/21 10:03:46;;;;;;;8.60;4.85;;;3.00;86.30;;;;;;5088191;28;20036;-63
2024/01/21 10:06:12;;;;;;;6.38;4.63;;;3.10;91.10;;;;;;5087237;28;20504;-64
2024/01/21 10:08:44;;;;;;;7.70;4.63;;;3.10;93.80;;;;;;5087644;28;20041;-64
2024/01/21 10:11:11;;;;;;;6.85;4.25;;;3.20;92.10;;;;;;5104584;28;20039;-67
2024/01/21 10:13:38;;;;;;;7.18;4.97;;;3.20;90.50;;;;;;5104016;28;20146;-64
2024/01/21 10:16:08;;;;;;;7.60;5.10;;;3.20;93.50;;;;;;5071375;28;20039;-64
2024/01/21 10:18:36;;;;;;;7.03;4.78;;;3.20;93.60;;;;;;5088444;28;20408;-64
2024/01/21 10:21:05;;;;;;;5.78;4.60;;;3.20;95.30;;;;;;5071550;28;20036;-65
2024/01/21 10:23:32;;;;;;;7.53;4.72;;;3.20;95.60;;;;;;5106408;28;20043;-64
2024/01/21 10:25:58;;;;;;;7.13;4.50;;;3.10;97.00;;;;;;5087927;28;20047;-64
2024/01/21 10:28:24;;;;;;;6.70;4.40;;;3.20;95.70;;;;;;5086295;28;20074;-63
2024/01/21 10:30:50;;;;;;;7.10;5.22;;;3.30;99.90;;;;;;5086855;28;20046;-64
2024/01/21 10:33:16;;;;;;;6.60;4.15;;;3.40;99.90;;;;;;5104397;28;20243;-65
2024/01/21 10:35:42;;;;;;;8.32;4.70;;;3.50;99.90;;;;;;5103845;28;20081;-64
2024/01/21 10:38:11;;;;;;;8.30;5.20;;;3.60;99.90;;;;;;5070040;28;20438;-64
2024/01/21 10:40:44;;;;;;;7.05;5.53;;;3.60;99.90;;;;;;5088662;28;20047;-65
2024/01/21 10:43:14;;;;;;;10.05;5.50;;;3.70;99.90;;;;;;5087236;28;20043;-65
2024/01/21 10:45:45;;;;;;;7.68;5.25;;;3.80;99.90;;;;;;5070901;28;20036;-64
2024/01/21 10:48:13;;;;;;;7.88;5.55;;;3.70;99.90;;;;;;5110027;27;20533;-64
2024/01/21 10:50:42;;;;;;;8.15;4.28;;;3.80;99.90;;;;;;5104839;28;20046;-64
2024/01/21 10:53:12;;;;;;;6.95;4.82;;;3.80;99.90;;;;;;5104027;28;20092;-65
2024/01/21 10:55:41;;;;;;;7.50;5.05;;;3.90;99.90;;;;;;5087791;28;20050;-65
2024/01/21 10:58:08;;;;;;;8.15;5.15;;;3.90;99.90;;;;;;5105514;28;20039;-65
2024/01/21 11:00:38;;;;;;;8.45;5.68;;;3.80;99.90;;;;;;5105201;28;20393;-65
2024/01/21 11:03:27;;;;;;;8.93;5.60;;;3.90;99.90;;;;;;5084458;28;20042;-64
2024/01/21 11:05:58;;;;;;;8.40;4.80;;;3.90;99.90;;;;;;5104800;28;20075;-64
2024/01/21 11:08:26;;;;;;;8.57;5.22;;;3.90;99.90;;;;;;5105631;28;20389;-63
2024/01/21 11:11:02;;;;;;;9.23;6.30;;;3.90;99.90;;;;;;5105153;28;20063;-63
2024/01/21 11:13:48;;;;;;;9.15;5.25;;;3.90;99.90;;;;;;5105087;28;20049;-63
2024/01/21 11:16:29;;;;;;;10.55;6.53;;;3.90;99.90;;;;;;5121392;27;20043;-64
2024/01/21 11:19:06;;;;;;;7.97;5.20;;;4.00;99.90;;;;;;5088082;28;20047;-62
2024/01/21 11:21:40;;;;;;;9.10;5.65;;;4.00;99.90;;;;;;5105726;28;20038;-63
2024/01/21 11:24:13;;;;;;;8.90;5.93;;;4.10;99.90;;;;;;5105312;28;20078;-65
2024/01/21 11:26:41;;;;;;;10.27;6.57;;;4.10;99.90;;;;;;5105117;28;20051;-63
2024/01/21 11:29:27;;;;;;;9.05;6.15;;;4.20;99.90;;;;;;5088028;28;20508;-63
2024/01/21 11:32:05;;;;;;;9.65;6.18;;;4.10;99.90;;;;;;5068088;28;20047;-64
2024/01/21 11:34:38;;;;;;;7.75;5.75;;;4.20;99.90;;;;;;5078976;28;20043;-65
2024/01/21 11:37:05;;;;;;;8.43;6.13;;;4.20;99.90;;;;;;5106741;28;20478;-64
2024/01/21 11:39:31;;;;;;;8.95;6.13;;;4.20;99.90;;;;;;5104771;28;20858;-62
2024/01/21 11:41:57;;;;;;;8.32;5.95;;;4.20;99.90;;;;;;5089432;28;20130;-63
2024/01/21 11:44:25;;;;;;;10.25;6.75;;;4.30;99.90;;;;;;5106294;28;20035;-63
2024/01/21 11:47:02;;;;;;;9.90;6.18;;;4.30;99.90;;;;;;5105355;28;20478;-63
2024/01/21 11:49:32;;;;;;;9.43;6.00;;;4.40;99.90;;;;;;5092741;28;20367;-65
2024/01/21 11:52:00;;;;;;;7.72;5.82;;;4.40;99.90;;;;;;5106108;28;20040;-63
2024/01/21 11:54:26;;;;;;;6.00;4.55;;;4.40;99.90;;;;;;5089192;28;20079;-64
2024/01/21 11:56:55;;;;;;;8.30;5.90;;;4.40;99.90;;;;;;5105042;28;20059;-63
2024/01/21 11:59:21;;;;;;;9.88;6.75;;;4.40;99.90;;;;;;5106041;28;20088;-64
2024/01/21 12:01:48;;;;;;;8.77;6.38;;;4.40;99.90;;;;;;5088195;28;20122;-63
2024/01/21 12:04:15;;;;;;;8.50;6.07;;;4.40;99.90;;;;;;5105551;28;20140;-63
2024/01/21 12:06:46;;;;;;;8.48;5.60;;;4.40;99.90;;;;;;5112414;28;20040;-62
2024/01/21 12:09:13;;;;;;;9.07;7.07;;;4.40;99.90;;;;;;5106041;28;20055;-62
2024/01/21 12:15:19;;;;;;;9.77;6.57;;;4.40;99.90;;;;;;5107757;28;20104;-63
2024/01/21 12:17:53;;;;;;;10.18;6.85;;;4.50;99.90;;;;;;5109186;28;20493;-63
2024/01/21 12:20:19;;;;;;;;;;;4.50;99.90;;;;;;5091001;28;20043;-63
2024/01/21 12:22:45;;;;;;;9.95;6.88;;;4.40;99.90;;;;;;5089328;28;19924;-64
2024/01/21 12:25:11;;;;;;;10.32;7.03;;;4.50;99.90;;;;;;5111305;27;20047;-63
2024/01/21 12:27:47;;;;;;;13.45;7.07;;;4.40;99.90;;;;;;5116491;27;20185;-65
2024/01/21 12:30:13;;;;;;;10.48;6.50;;;4.30;99.90;;;;;;5096723;28;20042;-63
2024/01/21 12:32:46;;;;;;;9.57;6.63;;;4.30;99.90;;;;;;5109822;28;20104;-63
2024/01/21 12:35:11;;;;;;;9.98;6.50;;;4.30;99.90;;;;;;5093784;28;20512;-62
2024/01/21 12:37:37;;;;;;;9.20;7.00;;;4.30;99.90;;;;;;5080345;28;20043;-63
2024/01/21 12:40:03;;;;;;;10.30;6.38;;;4.30;99.90;;;;;;5093499;28;20382;-62
2024/01/21 12:42:29;;;;;;;11.25;6.53;;;4.30;99.90;;;;;;5092294;28;20031;-63
2024/01/21 12:44:55;;;;;;;10.20;6.80;;;4.30;99.90;;;;;;5092724;28;20039;-64
2024/01/21 12:47:21;;;;;;;11.02;6.47;;;4.30;99.90;;;;;;5093348;28;20046;-63
2024/01/21 12:49:47;;;;;;;8.88;6.43;;;4.30;99.90;;;;;;5109708;28;20041;-62
2024/01/21 12:52:12;;;;;;;10.60;6.97;;;4.30;99.90;;;;;;5074704;28;20081;-63
2024/01/21 12:54:39;;;;;;;10.73;7.18;;;4.30;99.90;;;;;;5110705;28;20088;-62
2024/01/21 12:57:05;;;;;;;9.95;6.78;;;4.30;99.90;;;;;;5109217;28;20100;-63
2024/01/21 12:59:31;;;;;;;12.60;8.23;;;4.30;99.90;;;;;;5109358;28;21125;-63